Time;durP1;ratioP1;P1;durP2;ratioP2;P2;SDS_P1;SDS_P2;PMS_P1;PMS_P2;Temp;Humidity;BMP_temperature;BMP_pressure;BME280_temperature;BME280_humidity;BME280_pressure;Samples;Min_cycle;Max_cycle;Signal;HPM_P1;HPM_P2
2022/10/07 00:00:24;;;;;;;6.30;3.05;;;16.10;99.90;;;;;;7394196;19;20466;-82
2022/10/07 00:02:49;;;;;;;6.07;2.33;;;16.00;99.90;;;;;;7395411;19;20633;-80
2022/10/07 00:05:16;;;;;;;4.32;2.28;;;15.90;99.90;;;;;;7395373;19;20149;-82
2022/10/07 00:07:41;;;;;;;5.68;2.35;;;15.90;99.90;;;;;;7394217;19;20138;-83
2022/10/07 00:10:08;;;;;;;4.32;2.45;;;15.90;99.90;;;;;;7394950;19;20139;-83
2022/10/07 00:12:33;;;;;;;4.18;2.35;;;15.90;99.90;;;;;;7394675;19;20189;-84
2022/10/07 00:14:59;;;;;;;4.32;2.47;;;15.90;99.90;;;;;;7395557;19;20143;-82
2022/10/07 00:17:25;;;;;;;7.45;3.10;;;15.90;99.90;;;;;;7393247;19;20197;-82
2022/10/07 00:19:51;;;;;;;2.58;2.22;;;15.90;99.90;;;;;;7395439;19;20167;-83
2022/10/07 00:22:16;;;;;;;8.45;2.95;;;15.90;99.90;;;;;;7392293;19;20139;-82
2022/10/07 00:24:43;;;;;;;4.10;2.40;;;15.80;99.90;;;;;;7393848;19;20153;-82
2022/10/07 00:27:10;;;;;;;7.85;2.42;;;15.80;99.90;;;;;;7392397;19;20505;-82
2022/10/07 00:29:36;;;;;;;4.40;2.40;;;15.80;99.90;;;;;;7390993;19;20146;-82
2022/10/07 00:32:02;;;;;;;3.72;2.10;;;15.70;99.90;;;;;;7393921;19;20172;-83
2022/10/07 00:34:27;;;;;;;5.70;2.42;;;15.70;99.90;;;;;;7390955;19;20139;-82
2022/10/07 00:36:53;;;;;;;5.57;2.80;;;15.70;99.90;;;;;;7393413;19;20954;-83
2022/10/07 00:39:19;;;;;;;2.72;1.90;;;15.30;99.90;;;;;;7393961;19;20131;-84
2022/10/07 00:41:50;;;;;;;5.57;2.25;;;15.60;99.90;;;;;;7392627;19;20162;-83
2022/10/07 00:44:35;;;;;;;2.67;1.90;;;15.70;99.90;;;;;;7390166;19;20135;-82
2022/10/07 00:47:05;;;;;;;5.88;2.20;;;15.80;99.90;;;;;;7391515;19;20157;-82
2022/10/07 00:49:55;;;;;;;3.20;1.95;;;15.80;99.90;;;;;;7391156;19;20544;-82
2022/10/07 00:52:24;;;;;;;4.00;1.92;;;15.80;99.90;;;;;;7389502;19;20151;-82
2022/10/07 00:54:53;;;;;;;3.20;1.98;;;16.10;99.90;;;;;;7394011;19;20624;-83
2022/10/07 00:57:24;;;;;;;3.90;1.98;;;15.80;99.90;;;;;;7388990;19;20182;-82
2022/10/07 00:59:54;;;;;;;11.77;2.53;;;15.90;99.90;;;;;;7392205;19;20150;-82
2022/10/07 01:02:21;;;;;;;6.10;2.45;;;15.80;99.90;;;;;;7390422;19;20218;-82
2022/10/07 01:04:48;;;;;;;3.85;1.92;;;15.90;99.90;;;;;;7392643;19;20143;-83
2022/10/07 01:07:19;;;;;;;5.13;2.42;;;16.00;99.90;;;;;;7393139;19;20884;-83
2022/10/07 01:09:50;;;;;;;4.03;2.15;;;15.90;99.90;;;;;;7391725;19;20142;-83
2022/10/07 01:12:53;;;;;;;4.45;2.05;;;16.10;99.90;;;;;;7393676;19;20189;-82
2022/10/07 01:15:38;;;;;;;8.98;2.50;;;15.90;99.90;;;;;;7388742;19;20616;-83
2022/10/07 01:18:22;;;;;;;6.05;2.35;;;15.90;99.90;;;;;;7391815;19;20157;-83
2022/10/07 01:21:18;;;;;;;3.88;2.20;;;15.90;99.90;;;;;;7392370;19;20174;-84
2022/10/07 01:24:08;;;;;;;4.78;2.30;;;15.90;99.90;;;;;;7389327;19;20520;-83
2022/10/07 01:26:46;;;;;;;4.65;2.22;;;15.80;99.90;;;;;;7393548;19;20134;-84
2022/10/07 01:29:24;;;;;;;4.65;2.10;;;15.90;99.90;;;;;;7389830;19;20225;-83
2022/10/07 01:32:16;;;;;;;3.58;2.15;;;15.90;99.90;;;;;;7387723;19;20483;-84
2022/10/07 01:34:44;;;;;;;4.13;2.03;;;15.90;99.90;;;;;;7393190;19;20131;-82
2022/10/07 01:37:14;;;;;;;2.85;1.92;;;15.90;99.90;;;;;;7392651;19;20543;-85
2022/10/07 01:39:48;;;;;;;7.25;2.20;;;15.80;99.90;;;;;;7392510;19;20173;-83
2022/10/07 01:42:15;;;;;;;3.47;2.25;;;15.90;99.90;;;;;;7390267;19;20447;-84
2022/10/07 01:44:44;;;;;;;5.32;2.22;;;15.80;99.90;;;;;;7390581;19;20146;-81
2022/10/07 01:47:10;;;;;;;5.80;2.05;;;15.70;99.90;;;;;;7390650;19;20130;-82
2022/10/07 01:49:36;;;;;;;8.10;2.45;;;15.70;99.90;;;;;;7390344;19;20592;-84
2022/10/07 01:52:32;;;;;;;5.90;2.55;;;15.60;99.90;;;;;;7393521;19;20745;-83
2022/10/07 01:55:16;;;;;;;4.22;1.75;;;15.60;99.90;;;;;;7391975;19;20202;-81
2022/10/07 01:57:49;;;;;;;4.18;2.10;;;15.70;99.90;;;;;;7391954;19;20142;-82
2022/10/07 02:00:16;;;;;;;5.07;1.75;;;15.50;99.90;;;;;;7393791;19;20134;-83
2022/10/07 02:03:17;;;;;;;5.78;2.65;;;15.60;99.90;;;;;;7388704;19;20479;-83
2022/10/07 02:06:08;;;;;;;4.07;1.75;;;15.60;99.90;;;;;;7390895;19;20127;-83
2022/10/07 02:08:53;;;;;;;6.63;2.22;;;15.70;99.90;;;;;;7389330;19;20174;-80
2022/10/07 02:11:26;;;;;;;6.22;3.17;;;15.80;99.90;;;;;;7391116;19;20206;-83
2022/10/07 02:14:04;;;;;;;3.63;2.10;;;15.80;99.90;;;;;;7391903;19;20154;-82
2022/10/07 02:16:35;;;;;;;3.90;2.40;;;15.80;99.90;;;;;;7391762;19;20149;-81
2022/10/07 02:19:06;;;;;;;2.60;2.22;;;15.70;99.90;;;;;;7389783;19;20127;-82
2022/10/07 02:21:35;;;;;;;5.15;2.15;;;15.90;99.90;;;;;;7387445;19;20160;-82
2022/10/07 02:24:02;;;;;;;4.10;2.20;;;15.80;99.90;;;;;;7389742;19;20611;-82
2022/10/07 02:26:30;;;;;;;5.00;2.60;;;15.80;99.90;;;;;;7389745;19;20616;-81
2022/10/07 02:28:58;;;;;;;3.83;1.88;;;15.80;99.90;;;;;;7398289;19;20441;-82
2022/10/07 02:31:29;;;;;;;4.35;2.00;;;15.90;99.90;;;;;;7398190;19;20139;-84
2022/10/07 02:33:57;;;;;;;5.47;2.08;;;15.80;99.90;;;;;;7398322;19;20154;-83
2022/10/07 02:36:34;;;;;;;10.10;3.03;;;15.80;99.90;;;;;;7396057;19;20146;-82
2022/10/07 02:39:00;;;;;;;5.82;2.13;;;15.90;99.90;;;;;;7394985;19;20150;-82
2022/10/07 02:41:52;;;;;;;7.32;2.10;;;15.80;99.90;;;;;;7398432;19;20135;-83
2022/10/07 02:44:24;;;;;;;5.00;2.95;;;15.70;99.90;;;;;;7394173;19;20167;-82
2022/10/07 02:47:13;;;;;;;5.35;2.40;;;15.70;99.90;;;;;;7395382;19;20170;-83
2022/10/07 02:49:41;;;;;;;3.90;1.92;;;15.80;99.90;;;;;;7396849;19;20137;-83
2022/10/07 02:52:15;;;;;;;4.32;2.20;;;15.90;99.90;;;;;;7396572;19;20170;-83
2022/10/07 02:54:45;;;;;;;5.68;2.00;;;15.70;99.90;;;;;;7397579;19;20134;-83
2022/10/07 02:57:16;;;;;;;6.47;2.28;;;15.90;99.90;;;;;;7397408;19;20135;-82
2022/10/07 02:59:43;;;;;;;3.50;2.47;;;15.80;99.90;;;;;;7395933;19;20615;-82
2022/10/07 03:02:15;;;;;;;3.92;1.80;;;15.60;99.90;;;;;;7394623;19;20651;-83
2022/10/07 03:04:41;;;;;;;5.47;2.50;;;15.60;99.90;;;;;;7396129;19;20195;-81
2022/10/07 03:07:07;;;;;;;3.97;2.30;;;15.70;99.90;;;;;;7395111;19;20147;-83
2022/10/07 03:09:34;;;;;;;3.00;2.00;;;15.50;99.90;;;;;;7393803;19;20146;-82
2022/10/07 03:12:00;;;;;;;4.10;2.08;;;15.60;99.90;;;;;;7395084;19;20155;-83
2022/10/07 03:14:25;;;;;;;6.57;2.30;;;15.70;99.90;;;;;;7394071;19;20628;-82
2022/10/07 03:16:51;;;;;;;4.78;2.10;;;15.70;99.90;;;;;;7394706;19;20214;-83
2022/10/07 03:19:17;;;;;;;3.55;2.08;;;15.70;99.90;;;;;;7392893;19;20205;-82
2022/10/07 03:21:43;;;;;;;4.50;2.03;;;15.60;99.90;;;;;;7395636;19;20523;-82
2022/10/07 03:24:10;;;;;;;6.53;2.70;;;15.60;99.90;;;;;;7391295;19;20198;-83
2022/10/07 03:26:36;;;;;;;5.20;2.50;;;15.70;99.90;;;;;;7395081;19;20620;-81
2022/10/07 03:29:03;;;;;;;7.63;1.90;;;15.70;99.90;;;;;;7394629;19;20146;-82
2022/10/07 03:31:29;;;;;;;5.03;2.40;;;15.60;99.90;;;;;;7396411;19;20546;-81
2022/10/07 03:33:56;;;;;;;5.10;2.00;;;15.40;99.90;;;;;;7396099;19;20483;-82
2022/10/07 03:36:23;;;;;;;5.05;2.30;;;15.50;99.90;;;;;;7397041;19;20134;-82
2022/10/07 03:38:49;;;;;;;5.50;2.30;;;15.70;99.90;;;;;;7392419;19;20148;-81
2022/10/07 03:41:17;;;;;;;6.38;2.40;;;15.60;99.90;;;;;;7394427;19;20147;-82
2022/10/07 03:43:44;;;;;;;5.72;2.22;;;15.50;99.90;;;;;;7392979;19;20596;-82
2022/10/07 03:46:09;;;;;;;3.70;1.90;;;15.60;99.90;;;;;;7397664;19;20126;-82
2022/10/07 03:48:35;;;;;;;3.45;2.05;;;15.60;99.90;;;;;;7393931;19;20459;-82
2022/10/07 03:51:01;;;;;;;2.80;1.88;;;15.50;99.90;;;;;;7394429;19;20153;-81
2022/10/07 03:53:28;;;;;;;5.15;2.15;;;15.60;99.90;;;;;;7393943;19;20131;-81
2022/10/07 03:55:54;;;;;;;3.25;2.15;;;15.50;99.90;;;;;;7391539;19;20164;-81
2022/10/07 03:58:20;;;;;;;6.43;2.25;;;15.60;99.90;;;;;;7391318;19;20193;-82
2022/10/07 04:00:46;;;;;;;4.78;2.00;;;15.40;99.90;;;;;;7392800;19;20150;-80
2022/10/07 04:03:14;;;;;;;4.00;2.28;;;15.30;99.90;;;;;;7390376;19;20170;-81
2022/10/07 04:05:40;;;;;;;3.88;2.28;;;15.50;99.90;;;;;;7393494;19;20158;-81
2022/10/07 04:08:06;;;;;;;4.05;2.38;;;15.50;99.90;;;;;;7391413;19;20139;-81
2022/10/07 04:10:33;;;;;;;7.32;2.65;;;15.60;99.90;;;;;;7393261;19;20244;-81
2022/10/07 04:12:59;;;;;;;4.68;2.20;;;15.60;99.90;;;;;;7391936;19;20207;-81
2022/10/07 04:15:25;;;;;;;6.30;1.90;;;15.70;99.90;;;;;;7391717;19;20131;-80
2022/10/07 04:17:57;;;;;;;6.55;2.80;;;15.70;99.90;;;;;;7391297;19;20388;-82
2022/10/07 04:20:23;;;;;;;5.60;2.00;;;15.60;99.90;;;;;;7392595;19;20134;-81
2022/10/07 04:22:49;;;;;;;6.53;2.22;;;15.40;99.90;;;;;;7392332;19;20131;-82
2022/10/07 04:25:33;;;;;;;4.22;2.25;;;15.30;99.90;;;;;;7392928;19;20153;-81
2022/10/07 04:28:02;;;;;;;6.22;1.95;;;15.20;99.90;;;;;;7393645;19;20139;-80
2022/10/07 04:30:33;;;;;;;3.28;2.03;;;15.20;99.90;;;;;;7395293;19;20829;-82
2022/10/07 04:33:01;;;;;;;3.45;1.98;;;15.40;99.90;;;;;;7393048;19;20135;-83
2022/10/07 04:35:28;;;;;;;5.10;2.15;;;15.40;99.90;;;;;;7392646;19;20146;-82
2022/10/07 04:37:54;;;;;;;4.75;2.13;;;15.60;99.90;;;;;;7389343;19;20624;-81
2022/10/07 04:40:21;;;;;;;3.38;2.03;;;15.70;99.90;;;;;;7389431;19;20143;-81
2022/10/07 04:45:33;;;;;;;4.85;2.33;;;15.80;99.90;;;;;;7392791;19;20154;-81
2022/10/07 04:48:00;;;;;;;4.75;2.42;;;15.80;99.90;;;;;;7391041;19;20154;-81
2022/10/07 04:50:26;;;;;;;5.05;2.78;;;15.90;99.90;;;;;;7389744;19;20206;-81
2022/10/07 04:52:52;;;;;;;6.93;2.38;;;15.70;99.90;;;;;;7392537;19;20163;-82
2022/10/07 04:55:18;;;;;;;7.68;2.67;;;15.80;99.90;;;;;;7390811;19;20138;-81
2022/10/07 04:57:45;;;;;;;5.00;2.40;;;15.70;99.90;;;;;;7392280;19;20519;-80
2022/10/07 05:00:12;;;;;;;6.57;2.50;;;15.60;99.90;;;;;;7390789;19;20134;-81
2022/10/07 05:02:37;;;;;;;5.03;2.83;;;15.60;99.90;;;;;;7388702;19;20667;-82
2022/10/07 05:05:03;;;;;;;5.20;2.67;;;15.70;99.90;;;;;;7388695;19;20147;-81
2022/10/07 05:07:31;;;;;;;7.18;3.00;;;15.60;99.90;;;;;;7390179;19;20142;-81
2022/10/07 05:09:57;;;;;;;9.35;3.10;;;15.90;99.90;;;;;;7388409;19;20135;-81
2022/10/07 05:12:25;;;;;;;6.20;2.70;;;15.40;99.90;;;;;;7389657;19;20708;-80
2022/10/07 05:14:51;;;;;;;7.07;3.03;;;15.30;99.90;;;;;;7388796;19;20162;-81
2022/10/07 05:17:17;;;;;;;8.25;2.97;;;15.40;99.90;;;;;;7388041;19;20150;-80
2022/10/07 05:19:43;;;;;;;7.45;3.10;;;15.50;99.90;;;;;;7388264;19;20134;-81
2022/10/07 05:22:09;;;;;;;4.97;2.78;;;15.50;99.90;;;;;;7398309;19;20202;-81
2022/10/07 05:24:35;;;;;;;6.35;2.90;;;15.40;99.90;;;;;;7389829;19;20173;-80
2022/10/07 05:27:02;;;;;;;8.05;3.13;;;15.30;99.90;;;;;;7388985;19;20189;-80
2022/10/07 05:29:28;;;;;;;7.22;2.58;;;15.40;99.90;;;;;;7387913;19;20189;-79
2022/10/07 05:31:54;;;;;;;6.40;3.00;;;15.50;99.90;;;;;;7392908;19;20607;-82
2022/10/07 05:34:19;;;;;;;6.78;3.13;;;15.40;99.90;;;;;;7389395;19;20586;-79
2022/10/07 05:36:46;;;;;;;6.65;3.10;;;15.50;99.90;;;;;;7387050;19;20156;-80
2022/10/07 05:39:12;;;;;;;4.68;2.30;;;15.70;99.90;;;;;;7386837;19;20134;-79
2022/10/07 05:41:39;;;;;;;9.50;3.80;;;15.60;99.90;;;;;;7390858;19;20820;-81
2022/10/07 05:44:05;;;;;;;13.85;5.55;;;15.60;99.90;;;;;;7388540;19;20138;-80
2022/10/07 05:46:31;;;;;;;11.65;4.50;;;15.20;99.90;;;;;;7388238;19;20158;-81
2022/10/07 05:48:57;;;;;;;8.43;3.47;;;15.40;99.90;;;;;;7388960;19;20250;-80
2022/10/07 05:51:24;;;;;;;5.75;2.88;;;15.60;99.90;;;;;;7386398;19;20517;-79
2022/10/07 05:53:56;;;;;;;6.72;3.28;;;15.60;99.90;;;;;;7386096;19;20612;-80
2022/10/07 05:56:23;;;;;;;5.95;3.17;;;15.70;99.90;;;;;;7386027;19;20134;-81
2022/10/07 05:58:50;;;;;;;8.45;2.80;;;15.80;99.90;;;;;;7387459;19;20143;-82
2022/10/07 06:01:18;;;;;;;5.63;3.00;;;15.80;99.90;;;;;;7387252;19;20209;-79
2022/10/07 06:03:49;;;;;;;5.57;2.63;;;15.60;99.90;;;;;;7392262;19;20154;-80
2022/10/07 06:06:15;;;;;;;5.63;2.53;;;15.60;99.90;;;;;;7398964;19;20166;-80
2022/10/07 06:08:40;;;;;;;6.13;2.65;;;15.60;99.90;;;;;;7395109;19;20180;-81
2022/10/07 06:13:55;;;;;;;22.55;8.25;;;15.70;99.90;;;;;;7397601;19;20134;-80
2022/10/07 06:16:23;;;;;;;50.70;17.10;;;15.50;99.90;;;;;;7394427;19;20518;-80
2022/10/07 06:18:51;;;;;;;16.52;7.47;;;15.60;99.90;;;;;;7392470;19;20652;-80
2022/10/07 06:21:18;;;;;;;15.23;6.38;;;15.50;99.90;;;;;;7394646;19;20620;-79
2022/10/07 06:23:50;;;;;;;11.88;4.43;;;15.40;99.90;;;;;;7394173;19;20175;-81
2022/10/07 06:26:15;;;;;;;8.35;3.80;;;15.70;99.90;;;;;;7392081;19;20154;-81
2022/10/07 06:28:41;;;;;;;7.78;3.38;;;15.80;99.90;;;;;;7395885;19;20261;-80
2022/10/07 06:31:09;;;;;;;6.40;3.30;;;15.90;99.90;;;;;;7394588;19;20488;-80
2022/10/07 06:33:35;;;;;;;7.63;3.10;;;15.90;99.90;;;;;;7397850;19;20167;-81
2022/10/07 06:36:07;;;;;;;7.40;3.40;;;16.00;99.90;;;;;;7394454;19;20760;-80
2022/10/07 06:38:33;;;;;;;5.15;3.13;;;16.00;99.90;;;;;;7394744;19;20135;-81
2022/10/07 06:41:04;;;;;;;7.47;3.00;;;16.10;99.90;;;;;;7393555;19;20155;-80
2022/10/07 06:43:32;;;;;;;11.75;4.32;;;16.10;99.90;;;;;;7391804;19;20218;-79
2022/10/07 06:46:03;;;;;;;4.22;2.80;;;16.20;99.90;;;;;;7399275;19;20159;-80
2022/10/07 06:48:32;;;;;;;6.18;3.17;;;16.00;99.90;;;;;;7385401;19;20158;-81
2022/10/07 06:50:59;;;;;;;9.63;3.38;;;16.20;99.90;;;;;;7392075;19;20146;-81
2022/10/07 06:53:25;;;;;;;7.22;4.18;;;16.20;99.90;;;;;;7394190;19;20234;-81
2022/10/07 06:55:56;;;;;;;7.80;3.15;;;16.20;99.90;;;;;;7395094;19;21781;-83
2022/10/07 06:58:26;;;;;;;6.90;3.45;;;16.20;99.90;;;;;;7394838;19;20746;-80
2022/10/07 07:00:52;;;;;;;7.75;3.55;;;16.30;99.90;;;;;;7390512;19;20176;-81
2022/10/07 07:03:22;;;;;;;9.80;4.30;;;16.30;99.90;;;;;;7397585;19;20555;-82
2022/10/07 07:05:51;;;;;;;10.38;3.85;;;16.30;99.90;;;;;;7396361;19;20146;-81
2022/10/07 07:08:19;;;;;;;8.55;3.63;;;16.30;99.90;;;;;;7395422;19;20147;-81
2022/10/07 07:10:46;;;;;;;5.97;3.70;;;16.40;99.90;;;;;;7396854;19;20142;-81
2022/10/07 07:13:14;;;;;;;8.23;3.50;;;16.40;99.90;;;;;;7395885;19;20135;-82
2022/10/07 07:15:40;;;;;;;5.97;3.78;;;16.40;99.90;;;;;;7399039;19;20156;-81
2022/10/07 07:18:09;;;;;;;5.88;3.63;;;16.50;99.90;;;;;;7395367;19;20150;-81
2022/10/07 07:20:37;;;;;;;8.27;3.53;;;16.50;99.90;;;;;;7396552;19;20146;-82
2022/10/07 07:23:09;;;;;;;7.18;3.42;;;16.50;99.90;;;;;;7394464;19;20166;-79
2022/10/07 07:25:37;;;;;;;4.72;3.05;;;16.50;99.90;;;;;;7395073;19;20619;-81
2022/10/07 07:28:05;;;;;;;10.07;3.92;;;16.50;99.90;;;;;;7394897;19;20143;-81
2022/10/07 07:30:31;;;;;;;8.68;3.85;;;16.30;99.90;;;;;;7397144;19;20744;-81
2022/10/07 07:32:57;;;;;;;7.10;4.13;;;16.30;99.90;;;;;;7393717;19;20134;-81
2022/10/07 07:35:25;;;;;;;8.25;3.50;;;16.50;99.90;;;;;;7397922;19;20162;-81
2022/10/07 07:37:51;;;;;;;7.90;3.90;;;16.50;99.90;;;;;;7394927;19;20137;-81
2022/10/07 07:40:18;;;;;;;5.50;3.30;;;16.50;99.90;;;;;;7393722;19;20139;-82
2022/10/07 07:42:47;;;;;;;9.15;4.15;;;16.50;99.90;;;;;;7397211;19;20143;-81
2022/10/07 07:45:14;;;;;;;4.90;3.22;;;16.60;99.90;;;;;;7394362;19;20632;-81
2022/10/07 07:47:40;;;;;;;5.85;3.53;;;16.70;99.90;;;;;;7394224;19;20592;-81
2022/10/07 07:50:06;;;;;;;6.53;2.88;;;16.90;99.90;;;;;;7392669;19;20143;-79
2022/10/07 07:52:33;;;;;;;5.72;4.05;;;16.80;99.90;;;;;;7395300;19;20146;-80
2022/10/07 07:55:01;;;;;;;5.65;3.88;;;16.90;99.90;;;;;;7395170;19;20143;-80
2022/10/07 07:57:29;;;;;;;7.10;3.38;;;16.90;99.90;;;;;;7394564;19;20579;-80
2022/10/07 07:59:56;;;;;;;6.68;3.35;;;16.70;99.90;;;;;;7394220;19;20206;-82
2022/10/07 08:02:22;;;;;;;7.35;3.13;;;16.80;99.90;;;;;;7393929;19;20134;-81
2022/10/07 08:04:48;;;;;;;5.40;4.00;;;16.70;99.90;;;;;;7392445;19;20145;-79
2022/10/07 08:07:14;;;;;;;6.45;2.75;;;16.70;99.90;;;;;;7394837;19;20139;-80
2022/10/07 08:09:40;;;;;;;3.85;2.55;;;16.70;99.90;;;;;;7393745;19;20143;-79
2022/10/07 08:12:07;;;;;;;4.00;2.78;;;16.70;99.90;;;;;;7396344;19;20468;-79
2022/10/07 08:14:33;;;;;;;5.47;2.92;;;16.70;99.90;;;;;;7394414;19;20135;-80
2022/10/07 08:16:59;;;;;;;5.53;3.40;;;16.90;99.90;;;;;;7389551;19;20154;-80
2022/10/07 08:19:25;;;;;;;7.28;4.40;;;16.90;99.90;;;;;;7392304;19;20161;-80
2022/10/07 08:21:52;;;;;;;4.80;2.38;;;16.90;99.90;;;;;;7390603;19;20153;-80
2022/10/07 08:24:18;;;;;;;4.60;2.28;;;17.00;99.90;;;;;;7390574;19;20142;-81
2022/10/07 08:26:46;;;;;;;2.50;2.13;;;17.10;99.90;;;;;;7392741;19;20123;-81
2022/10/07 08:29:12;;;;;;;3.13;2.10;;;17.20;99.90;;;;;;7393984;19;20139;-81
2022/10/07 08:31:37;;;;;;;4.20;2.47;;;17.30;99.90;;;;;;7395459;19;20126;-81
2022/10/07 08:34:05;;;;;;;4.80;2.08;;;17.40;99.90;;;;;;7392531;19;20205;-80
2022/10/07 08:36:32;;;;;;;3.13;1.83;;;17.40;99.90;;;;;;7393124;19;20138;-82
2022/10/07 08:38:59;;;;;;;3.13;2.20;;;17.40;99.90;;;;;;7391353;19;20163;-80
2022/10/07 08:41:53;;;;;;;3.35;2.13;;;17.50;99.90;;;;;;7393324;19;20131;-81
2022/10/07 08:44:21;;;;;;;3.58;1.90;;;17.60;99.90;;;;;;7392793;19;20158;-80
2022/10/07 08:47:03;;;;;;;2.25;1.83;;;17.70;99.90;;;;;;7407990;19;20149;-81
2022/10/07 08:49:55;;;;;;;3.50;1.80;;;17.70;99.90;;;;;;7393410;19;20149;-80
2022/10/07 08:52:58;;;;;;;4.03;1.88;;;17.80;99.90;;;;;;7393420;19;20149;-81
2022/10/07 08:55:36;;;;;;;2.90;2.35;;;17.80;99.90;;;;;;7392422;19;20150;-81
2022/10/07 08:58:25;;;;;;;5.38;2.17;;;17.90;99.90;;;;;;7400998;19;20135;-82
2022/10/07 09:01:28;;;;;;;4.43;1.58;;;18.10;99.90;;;;;;7392214;19;20131;-80
2022/10/07 09:04:21;;;;;;;3.33;1.85;;;18.10;99.90;;;;;;7400426;19;20149;-81
2022/10/07 09:07:04;;;;;;;4.25;2.30;;;18.20;99.90;;;;;;7391582;19;20138;-80
2022/10/07 09:09:53;;;;;;;5.05;3.50;;;18.40;99.90;;;;;;7391122;19;20142;-81
2022/10/07 09:12:49;;;;;;;3.08;2.65;;;18.50;99.90;;;;;;7397156;19;20143;-80
2022/10/07 09:15:40;;;;;;;9.98;7.10;;;18.60;99.90;;;;;;7398103;19;20135;-82
2022/10/07 09:18:23;;;;;;;7.20;2.80;;;18.80;99.90;;;;;;7391905;19;20162;-82
2022/10/07 09:20:59;;;;;;;5.05;2.20;;;18.80;99.90;;;;;;7395668;19;20133;-81
2022/10/07 09:23:29;;;;;;;8.10;3.85;;;19.00;99.90;;;;;;7393278;19;20267;-80
2022/10/07 09:25:55;;;;;;;5.32;3.53;;;19.00;99.90;;;;;;7393046;19;20166;-80
2022/10/07 09:28:28;;;;;;;5.55;3.50;;;19.20;99.90;;;;;;7401455;19;20183;-79
2022/10/07 09:30:55;;;;;;;3.80;2.55;;;19.20;99.90;;;;;;7405690;19;20568;-81
2022/10/07 09:33:23;;;;;;;3.88;2.13;;;19.40;99.90;;;;;;7406951;19;20210;-81
2022/10/07 09:36:10;;;;;;;3.78;1.85;;;19.40;99.90;;;;;;7406584;19;20160;-81
2022/10/07 09:38:41;;;;;;;3.47;2.10;;;19.40;99.90;;;;;;7403402;19;20494;-80
2022/10/07 09:41:18;;;;;;;4.15;2.15;;;19.50;99.90;;;;;;7409169;19;20140;-80
2022/10/07 09:43:53;;;;;;;2.88;2.50;;;19.50;99.90;;;;;;7408067;19;20142;-81
2022/10/07 09:46:30;;;;;;;5.13;2.53;;;19.50;99.90;;;;;;7407281;19;20134;-81
2022/10/07 09:48:58;;;;;;;5.50;2.22;;;19.50;99.90;;;;;;7401369;19;20848;-81
2022/10/07 09:51:25;;;;;;;3.60;2.13;;;19.50;99.90;;;;;;7403464;19;20135;-79
2022/10/07 09:54:15;;;;;;;4.55;2.72;;;19.60;99.90;;;;;;7403439;19;20135;-80
2022/10/07 09:56:44;;;;;;;5.60;2.13;;;19.50;99.90;;;;;;7397479;19;20155;-81
2022/10/07 09:59:17;;;;;;;6.88;2.83;;;19.60;99.90;;;;;;7397004;19;20150;-81
2022/10/07 10:02:19;;;;;;;7.00;2.67;;;19.60;99.90;;;;;;7398232;19;20134;-80
2022/10/07 10:04:56;;;;;;;3.03;2.28;;;19.70;99.90;;;;;;7400010;19;20158;-80
2022/10/07 10:07:29;;;;;;;4.70;2.28;;;19.60;99.90;;;;;;7404900;19;21189;-80
2022/10/07 10:10:23;;;;;;;3.25;2.20;;;19.70;99.90;;;;;;7399143;19;20155;-80
2022/10/07 10:12:52;;;;;;;2.67;2.10;;;19.60;99.90;;;;;;7397589;19;20527;-81
2022/10/07 10:15:43;;;;;;;5.15;2.60;;;19.70;99.90;;;;;;7392734;19;20138;-82
2022/10/07 10:18:29;;;;;;;5.90;4.00;;;19.70;99.90;;;;;;7391742;19;20218;-81
2022/10/07 10:21:29;;;;;;;5.07;3.70;;;19.90;99.90;;;;;;7394138;19;20151;-81
2022/10/07 10:24:04;;;;;;;3.40;3.10;;;19.80;99.90;;;;;;7393387;19;20206;-80
2022/10/07 10:26:42;;;;;;;4.38;2.67;;;19.90;99.90;;;;;;7398799;19;20242;-80
2022/10/07 10:29:29;;;;;;;5.15;2.33;;;20.00;99.90;;;;;;7405194;19;20171;-82
2022/10/07 10:32:00;;;;;;;2.60;2.10;;;20.00;99.90;;;;;;7395068;19;20757;-81
2022/10/07 10:34:41;;;;;;;5.03;2.10;;;19.90;99.90;;;;;;7392170;19;20135;-82
2022/10/07 10:37:10;;;;;;;3.67;2.40;;;19.90;99.90;;;;;;7397566;19;20142;-79
2022/10/07 10:40:06;;;;;;;3.67;2.70;;;20.00;99.90;;;;;;7400233;19;20135;-81
2022/10/07 10:42:43;;;;;;;4.05;2.42;;;20.10;99.90;;;;;;7403383;19;20131;-80
2022/10/07 10:45:39;;;;;;;4.10;2.42;;;20.20;99.90;;;;;;7400614;19;20138;-80
2022/10/07 10:48:17;;;;;;;9.45;4.10;;;19.90;99.90;;;;;;7398187;19;20131;-80
2022/10/07 10:51:09;;;;;;;7.00;4.00;;;19.90;99.90;;;;;;7401393;19;20131;-80
2022/10/07 10:53:56;;;;;;;8.48;4.28;;;20.00;99.90;;;;;;7397889;19;20127;-78
2022/10/07 10:56:34;;;;;;;5.18;2.78;;;20.10;99.90;;;;;;7393406;19;20607;-78
2022/10/07 10:59:17;;;;;;;3.63;2.13;;;20.10;99.90;;;;;;7393871;19;20149;-78
2022/10/07 11:01:47;;;;;;;3.95;2.60;;;20.10;99.90;;;;;;7395936;19;20483;-79
2022/10/07 11:04:26;;;;;;;4.03;2.20;;;20.10;99.90;;;;;;7392062;19;20679;-78
2022/10/07 11:06:59;;;;;;;6.18;2.75;;;20.10;99.90;;;;;;7394390;19;20137;-79
2022/10/07 11:09:31;;;;;;;4.38;2.70;;;20.10;99.90;;;;;;7392664;19;20138;-79
2022/10/07 11:11:59;;;;;;;3.67;2.80;;;20.10;99.90;;;;;;7394215;19;20138;-77
2022/10/07 11:14:28;;;;;;;6.38;5.28;;;20.20;99.90;;;;;;7392595;19;20491;-78
2022/10/07 11:17:01;;;;;;;3.90;2.70;;;20.20;99.90;;;;;;7393101;19;20146;-79
2022/10/07 11:19:34;;;;;;;3.67;2.75;;;20.40;99.90;;;;;;7394665;19;20135;-79
2022/10/07 11:22:01;;;;;;;6.18;3.17;;;20.50;99.90;;;;;;7396478;19;20138;-79
2022/10/07 11:24:41;;;;;;;5.18;3.25;;;20.60;99.90;;;;;;7390457;19;20253;-79
2022/10/07 11:27:16;;;;;;;3.58;2.88;;;20.50;99.90;;;;;;7391725;19;20126;-79
2022/10/07 11:30:04;;;;;;;5.43;2.78;;;20.50;99.90;;;;;;7392551;19;20142;-78
2022/10/07 11:33:00;;;;;;;3.65;3.22;;;20.50;99.90;;;;;;7395162;19;20519;-78
2022/10/07 11:35:33;;;;;;;3.65;2.83;;;20.50;99.90;;;;;;7393716;19;20138;-79
2022/10/07 11:38:11;;;;;;;3.75;2.70;;;20.50;99.90;;;;;;7394090;19;20134;-79
2022/10/07 11:41:01;;;;;;;3.85;2.67;;;20.40;99.90;;;;;;7395426;19;20194;-78
2022/10/07 11:43:39;;;;;;;5.95;2.92;;;20.60;99.90;;;;;;7392017;19;20560;-78
2022/10/07 11:46:21;;;;;;;4.70;3.08;;;20.50;99.90;;;;;;7392429;19;20153;-78
2022/10/07 11:49:05;;;;;;;4.28;3.03;;;20.70;99.90;;;;;;7391453;19;20138;-78
2022/10/07 11:51:39;;;;;;;4.80;3.20;;;20.60;99.90;;;;;;7395299;19;20135;-79
2022/10/07 11:54:13;;;;;;;5.05;2.95;;;20.70;99.90;;;;;;7391827;19;20135;-79
2022/10/07 11:56:50;;;;;;;3.58;3.00;;;20.60;99.90;;;;;;7393148;19;20130;-78
2022/10/07 11:59:45;;;;;;;4.95;3.05;;;20.80;99.90;;;;;;7392531;19;20134;-80
2022/10/07 12:02:29;;;;;;;3.90;3.15;;;20.80;99.90;;;;;;7391321;19;20154;-79
2022/10/07 12:04:58;;;;;;;4.55;3.28;;;20.70;99.90;;;;;;7393544;19;20182;-78
2022/10/07 12:07:43;;;;;;;6.03;3.20;;;20.80;99.90;;;;;;7389165;19;20473;-78
2022/10/07 12:10:22;;;;;;;4.43;3.15;;;20.70;99.90;;;;;;7391379;19;20150;-78
2022/10/07 12:12:51;;;;;;;5.72;3.38;;;20.70;99.90;;;;;;7394416;19;20198;-78
2022/10/07 12:15:39;;;;;;;5.40;3.30;;;20.80;99.90;;;;;;7395132;19;20146;-76
2022/10/07 12:18:04;;;;;;;4.70;2.80;;;20.80;99.90;;;;;;7393270;19;20750;-77
2022/10/07 12:20:43;;;;;;;4.70;3.33;;;20.80;99.90;;;;;;7393203;19;20170;-77
2022/10/07 12:23:22;;;;;;;7.68;3.20;;;20.80;99.90;;;;;;7393359;19;20157;-77
2022/10/07 12:25:52;;;;;;;4.47;3.30;;;20.80;99.90;;;;;;7389282;19;20146;-78
2022/10/07 12:28:33;;;;;;;3.42;2.72;;;20.70;99.90;;;;;;7390782;19;20169;-77
2022/10/07 12:31:01;;;;;;;4.15;3.03;;;20.70;99.90;;;;;;7391817;19;20140;-77
2022/10/07 12:33:42;;;;;;;4.05;3.28;;;20.70;99.90;;;;;;7391195;19;20250;-77
2022/10/07 12:36:28;;;;;;;3.35;2.97;;;20.70;99.90;;;;;;7391797;19;20139;-77
2022/10/07 12:38:57;;;;;;;4.00;3.17;;;20.70;99.90;;;;;;7389439;19;20535;-78
2022/10/07 12:41:37;;;;;;;4.55;2.83;;;20.70;99.90;;;;;;7390824;19;20225;-77
2022/10/07 12:44:23;;;;;;;4.28;2.88;;;20.70;99.90;;;;;;7389466;19;20139;-76
2022/10/07 12:46:59;;;;;;;3.72;2.80;;;20.70;99.90;;;;;;7391838;19;20134;-77
2022/10/07 12:49:47;;;;;;;3.30;3.00;;;20.80;99.90;;;;;;7390425;19;20142;-77
2022/10/07 12:52:33;;;;;;;6.93;2.88;;;20.80;99.90;;;;;;7393365;19;20138;-77
2022/10/07 12:55:09;;;;;;;3.58;2.78;;;20.80;99.90;;;;;;7391125;19;20170;-78
2022/10/07 12:57:41;;;;;;;3.65;2.38;;;20.70;99.90;;;;;;7392418;19;20143;-77
2022/10/07 13:00:23;;;;;;;3.75;2.88;;;20.70;99.90;;;;;;7389414;19;20146;-78
2022/10/07 13:03:16;;;;;;;5.10;3.10;;;20.70;99.90;;;;;;7392825;19;20135;-77
2022/10/07 13:05:50;;;;;;;4.55;3.38;;;20.60;99.90;;;;;;7392146;19;20134;-77
2022/10/07 13:08:52;;;;;;;4.75;2.80;;;20.60;99.90;;;;;;7378198;19;20154;-77
2022/10/07 13:11:40;;;;;;;6.43;3.38;;;20.60;99.90;;;;;;7390110;19;20146;-76
2022/10/07 13:14:44;;;;;;;4.95;3.03;;;20.80;99.90;;;;;;7389858;19;20134;-77
2022/10/07 13:17:39;;;;;;;3.72;2.60;;;20.80;99.90;;;;;;7391769;19;20173;-77
2022/10/07 13:20:27;;;;;;;4.65;3.13;;;20.70;99.90;;;;;;7391026;19;20551;-77